Time;durP1;ratioP1;P1;durP2;ratioP2;P2;SDS_P1;SDS_P2;PMS_P1;PMS_P2;Temp;Humidity;BMP_temperature;BMP_pressure;BME280_temperature;BME280_humidity;BME280_pressure;Samples;Min_cycle;Max_cycle;Signal;HPM_P1;HPM_P2
2022/09/06 00:02:21;;;;;;;3.60;0.60;;;;;;;;;;5027768;28;20099;-69
2022/09/06 00:04:50;;;;;;;0.80;0.80;;;;;;;;;;5025448;28;20084;-68
2022/09/06 00:07:18;;;;;;;0.80;0.80;;;;;;;;;;5028909;28;20153;-68
2022/09/06 00:09:48;;;;;;;1.10;0.75;;;;;;;;;;5026053;28;20500;-68
2022/09/06 00:12:16;;;;;;;1.77;0.88;;;;;;;;;;5024325;28;20137;-68
2022/09/06 00:14:44;;;;;;;3.15;1.00;;;;;;;;;;5026998;28;20224;-70
2022/09/06 00:17:13;;;;;;;1.40;0.52;;;;;;;;;;5043570;28;20049;-75
2022/09/06 00:19:41;;;;;;;1.45;0.70;;;;;;;;;;5043944;28;20179;-72
2022/09/06 00:22:09;;;;;;;0.68;0.60;;;;;;;;;;5044335;28;20045;-68
2022/09/06 00:24:38;;;;;;;2.47;0.80;;;;;;;;;;5048062;28;20065;-69
2022/09/06 00:27:08;;;;;;;1.08;0.82;;;;;;;;;;5049988;28;20087;-68
2022/09/06 00:29:36;;;;;;;1.58;0.77;;;;;;;;;;5047993;28;20562;-68
2022/09/06 00:32:05;;;;;;;0.47;0.47;;;;;;;;;;5049932;28;20135;-69
2022/09/06 00:34:33;;;;;;;1.42;0.98;;;;;;;;;;5046658;28;20044;-68
2022/09/06 00:37:02;;;;;;;0.93;0.80;;;;;;;;;;5028631;28;20433;-73
2022/09/06 00:39:30;;;;;;;2.03;1.10;;;;;;;;;;5028898;28;20051;-68
2022/09/06 00:41:58;;;;;;;0.90;0.70;;;;;;;;;;5029847;28;20151;-75
2022/09/06 00:44:28;;;;;;;1.48;1.05;;;;;;;;;;5027249;28;20152;-69
2022/09/06 00:46:56;;;;;;;2.70;1.05;;;;;;;;;;5024219;28;20509;-70
2022/09/06 00:49:26;;;;;;;1.33;0.90;;;;;;;;;;5030570;28;20128;-68
2022/09/06 00:51:57;;;;;;;1.17;0.70;;;;;;;;;;5027233;28;20124;-68
2022/09/06 00:54:26;;;;;;;3.22;1.33;;;;;;;;;;5028284;28;20132;-69
2022/09/06 00:56:55;;;;;;;0.60;0.60;;;;;;;;;;5047335;28;20055;-69
2022/09/06 00:59:25;;;;;;;5.53;0.82;;;;;;;;;;5046669;28;20118;-71
2022/09/06 01:01:54;;;;;;;0.63;0.52;;;;;;;;;;5046927;28;20041;-76
2022/09/06 01:04:23;;;;;;;1.20;0.70;;;;;;;;;;5042242;28;21003;-72
2022/09/06 01:06:56;;;;;;;0.95;0.70;;;;;;;;;;5023620;28;20052;-70
2022/09/06 01:09:32;;;;;;;0.80;0.68;;;;;;;;;;5021378;28;20076;-70
2022/09/06 01:12:05;;;;;;;1.13;1.02;;;;;;;;;;5025366;28;20089;-68
2022/09/06 01:14:41;;;;;;;1.08;0.98;;;;;;;;;;5020450;28;20051;-69
2022/09/06 01:17:15;;;;;;;3.33;1.05;;;;;;;;;;5036341;28;20048;-68
2022/09/06 01:19:55;;;;;;;0.50;0.47;;;;;;;;;;5044439;28;20081;-70
2022/09/06 01:22:39;;;;;;;1.33;0.80;;;;;;;;;;5046067;28;20133;-68
2022/09/06 01:25:18;;;;;;;1.25;0.80;;;;;;;;;;5044157;28;20047;-68
2022/09/06 01:28:03;;;;;;;1.35;0.63;;;;;;;;;;5047844;28;20099;-68
2022/09/06 01:30:34;;;;;;;0.75;0.52;;;;;;;;;;5046181;28;20049;-70
2022/09/06 01:33:05;;;;;;;2.38;1.08;;;;;;;;;;5041384;28;20095;-69
2022/09/06 01:35:36;;;;;;;1.13;0.85;;;;;;;;;;5042247;28;20124;-69
2022/09/06 01:38:05;;;;;;;1.05;0.90;;;;;;;;;;5045270;28;20096;-68
2022/09/06 01:40:35;;;;;;;0.90;0.70;;;;;;;;;;5046709;28;20092;-71
2022/09/06 01:43:06;;;;;;;1.02;0.70;;;;;;;;;;5049034;28;20037;-68
2022/09/06 01:45:41;;;;;;;0.60;0.60;;;;;;;;;;5038162;28;20477;-69
2022/09/06 01:48:13;;;;;;;1.23;0.98;;;;;;;;;;5025990;28;20045;-70
2022/09/06 01:50:48;;;;;;;1.52;1.17;;;;;;;;;;5027586;28;20136;-69
2022/09/06 01:53:22;;;;;;;1.35;0.82;;;;;;;;;;5026267;28;20132;-68
2022/09/06 01:55:52;;;;;;;0.50;0.50;;;;;;;;;;5028144;28;20128;-68
2022/09/06 01:58:30;;;;;;;1.35;0.98;;;;;;;;;;5028165;28;20471;-72
2022/09/06 02:01:01;;;;;;;1.55;0.60;;;;;;;;;;5023337;28;20552;-69
2022/09/06 02:03:33;;;;;;;0.50;0.50;;;;;;;;;;5020103;28;20046;-68
2022/09/06 02:06:07;;;;;;;2.15;1.40;;;;;;;;;;5023342;28;20629;-68
2022/09/06 02:08:37;;;;;;;4.30;1.23;;;;;;;;;;5024560;28;20124;-68
2022/09/06 02:11:09;;;;;;;2.13;0.60;;;;;;;;;;5026390;28;20066;-70
2022/09/06 02:13:40;;;;;;;2.08;0.52;;;;;;;;;;5021154;28;20129;-71
2022/09/06 02:16:11;;;;;;;1.35;0.65;;;;;;;;;;5025404;28;20518;-69
2022/09/06 02:18:43;;;;;;;0.63;0.52;;;;;;;;;;5025036;28;20152;-69
2022/09/06 02:21:14;;;;;;;0.90;0.70;;;;;;;;;;5030962;28;20148;-69
2022/09/06 02:23:43;;;;;;;1.30;0.65;;;;;;;;;;5028802;28;20136;-71
2022/09/06 02:26:14;;;;;;;1.35;0.80;;;;;;;;;;5028077;28;20497;-69
2022/09/06 02:28:44;;;;;;;0.40;0.32;;;;;;;;;;5036107;28;20471;-69
2022/09/06 02:31:16;;;;;;;0.80;0.68;;;;;;;;;;5028760;28;20052;-74
2022/09/06 02:33:45;;;;;;;0.73;0.73;;;;;;;;;;5028265;28;20077;-72
2022/09/06 02:36:14;;;;;;;0.52;0.50;;;;;;;;;;5025195;28;20490;-69
2022/09/06 02:38:44;;;;;;;1.00;0.73;;;;;;;;;;5035431;28;20100;-69
2022/09/06 02:41:13;;;;;;;0.52;0.45;;;;;;;;;;5034612;28;20077;-69
2022/09/06 02:43:42;;;;;;;0.95;0.70;;;;;;;;;;5031784;28;20136;-69
2022/09/06 02:46:12;;;;;;;0.70;0.68;;;;;;;;;;5029577;28;20148;-70
2022/09/06 02:48:41;;;;;;;1.00;0.82;;;;;;;;;;5029836;28;20053;-69
2022/09/06 02:51:09;;;;;;;1.15;0.98;;;;;;;;;;5024197;28;20200;-73
2022/09/06 02:53:38;;;;;;;0.43;0.43;;;;;;;;;;5028266;28;20055;-78
2022/09/06 02:56:09;;;;;;;0.68;0.57;;;;;;;;;;5029621;28;20045;-69
2022/09/06 02:58:38;;;;;;;1.27;1.13;;;;;;;;;;5030706;28;20136;-71
2022/09/06 03:01:10;;;;;;;0.50;0.50;;;;;;;;;;5026407;28;20072;-70
2022/09/06 03:03:39;;;;;;;0.80;0.80;;;;;;;;;;5030743;28;20570;-72
2022/09/06 03:06:08;;;;;;;1.00;0.77;;;;;;;;;;5040130;28;20111;-68
2022/09/06 03:08:37;;;;;;;1.33;0.60;;;;;;;;;;5048385;28;20045;-70
2022/09/06 03:11:08;;;;;;;0.47;0.47;;;;;;;;;;5050163;28;20095;-71
2022/09/06 03:13:36;;;;;;;1.20;0.70;;;;;;;;;;5048685;28;20072;-71
2022/09/06 03:16:07;;;;;;;0.47;0.47;;;;;;;;;;5032710;28;20045;-68
2022/09/06 03:18:36;;;;;;;7.00;1.00;;;;;;;;;;5028252;28;20144;-68
2022/09/06 03:21:08;;;;;;;1.67;0.80;;;;;;;;;;5029762;28;20507;-70
2022/09/06 03:23:38;;;;;;;1.10;1.00;;;;;;;;;;5026989;28;20394;-68
2022/09/06 03:26:09;;;;;;;2.00;0.77;;;;;;;;;;5029550;28;20585;-68
2022/09/06 03:28:38;;;;;;;0.40;0.40;;;;;;;;;;5037558;28;20047;-70
2022/09/06 03:31:09;;;;;;;2.28;1.35;;;;;;;;;;5025993;28;20191;-68
2022/09/06 03:33:38;;;;;;;0.93;0.70;;;;;;;;;;5030031;28;20045;-72
2022/09/06 03:36:11;;;;;;;0.60;0.50;;;;;;;;;;5038537;28;20073;-68
2022/09/06 03:38:39;;;;;;;2.50;0.75;;;;;;;;;;5047222;28;20679;-69
2022/09/06 03:41:08;;;;;;;0.60;0.52;;;;;;;;;;5047555;28;20537;-68
2022/09/06 03:43:36;;;;;;;0.80;0.70;;;;;;;;;;5048092;28;20044;-68
2022/09/06 03:46:08;;;;;;;0.93;0.60;;;;;;;;;;5033755;28;20395;-69
2022/09/06 03:48:36;;;;;;;1.45;0.75;;;;;;;;;;5027358;28;20076;-70
2022/09/06 03:51:08;;;;;;;1.15;0.55;;;;;;;;;;5028446;28;20045;-69
2022/09/06 03:53:38;;;;;;;1.30;0.80;;;;;;;;;;5024315;28;20124;-68
2022/09/06 03:56:09;;;;;;;2.70;1.33;;;;;;;;;;5027576;28;20053;-69
2022/09/06 03:58:37;;;;;;;1.35;0.70;;;;;;;;;;5029996;28;20136;-68
2022/09/06 04:01:10;;;;;;;0.73;0.43;;;;;;;;;;5024902;28;20073;-67
2022/09/06 04:03:39;;;;;;;1.30;1.02;;;;;;;;;;5020707;28;20053;-72
2022/09/06 04:06:08;;;;;;;1.35;0.68;;;;;;;;;;5027279;28;20223;-68
2022/09/06 04:08:38;;;;;;;0.75;0.57;;;;;;;;;;5027216;28;20124;-67
2022/09/06 04:11:09;;;;;;;2.95;0.90;;;;;;;;;;5024712;28;20501;-68
2022/09/06 04:13:38;;;;;;;0.50;0.50;;;;;;;;;;5028939;28;20047;-72
2022/09/06 04:16:09;;;;;;;0.32;0.32;;;;;;;;;;5028525;28;20161;-67
2022/09/06 04:18:38;;;;;;;1.00;0.90;;;;;;;;;;5025371;28;20041;-69
2022/09/06 04:21:09;;;;;;;0.22;0.22;;;;;;;;;;5026703;28;20136;-70
2022/09/06 04:23:39;;;;;;;1.00;0.70;;;;;;;;;;5027692;28;20132;-75
2022/09/06 04:26:07;;;;;;;1.13;0.90;;;;;;;;;;5023534;28;20140;-69
2022/09/06 04:28:36;;;;;;;1.15;0.55;;;;;;;;;;5030303;28;20119;-69
2022/09/06 04:31:10;;;;;;;1.85;1.05;;;;;;;;;;5032954;28;20041;-67
2022/09/06 04:33:38;;;;;;;0.77;0.68;;;;;;;;;;5026317;28;20061;-69
2022/09/06 04:36:08;;;;;;;0.60;0.50;;;;;;;;;;5026941;28;20160;-70
2022/09/06 04:38:39;;;;;;;0.45;0.43;;;;;;;;;;5024778;28;20452;-68
2022/09/06 04:41:08;;;;;;;1.00;0.90;;;;;;;;;;5029079;28;20124;-68
2022/09/06 04:43:37;;;;;;;0.57;0.45;;;;;;;;;;5029223;28;20085;-69
2022/09/06 04:46:12;;;;;;;0.80;0.80;;;;;;;;;;5033110;28;20568;-68
2022/09/06 04:48:40;;;;;;;0.90;0.68;;;;;;;;;;5031924;28;20049;-69
2022/09/06 04:51:08;;;;;;;0.77;0.52;;;;;;;;;;5026015;28;20060;-70
2022/09/06 04:53:38;;;;;;;1.02;0.77;;;;;;;;;;5029955;28;20548;-70
2022/09/06 04:56:13;;;;;;;1.25;0.93;;;;;;;;;;5020585;28;20060;-69
2022/09/06 04:58:42;;;;;;;0.32;0.32;;;;;;;;;;5015767;28;20041;-70
2022/09/06 05:01:11;;;;;;;2.80;1.15;;;;;;;;;;5022578;28;20160;-72
2022/09/06 05:03:39;;;;;;;0.40;0.40;;;;;;;;;;5018667;28;20050;-74
2022/09/06 05:06:08;;;;;;;0.40;0.40;;;;;;;;;;5013164;28;20136;-70
2022/09/06 05:08:38;;;;;;;1.75;0.93;;;;;;;;;;5016449;28;20082;-68
2022/09/06 05:11:11;;;;;;;0.55;0.45;;;;;;;;;;5021931;28;20049;-71
2022/09/06 05:13:39;;;;;;;0.75;0.70;;;;;;;;;;5020072;28;20046;-69
2022/09/06 05:16:08;;;;;;;1.38;0.73;;;;;;;;;;5024412;28;20161;-73
2022/09/06 05:18:37;;;;;;;0.75;0.68;;;;;;;;;;5024931;28;20053;-68
2022/09/06 05:21:09;;;;;;;1.05;0.70;;;;;;;;;;5023144;28;20081;-68
2022/09/06 05:23:38;;;;;;;0.35;0.32;;;;;;;;;;5021143;28;20084;-69
2022/09/06 05:26:07;;;;;;;0.73;0.32;;;;;;;;;;5024207;28;20136;-72
2022/09/06 05:28:35;;;;;;;0.98;0.82;;;;;;;;;;5025581;28;20057;-71
2022/09/06 05:31:08;;;;;;;1.38;0.88;;;;;;;;;;5023472;28;20172;-71
2022/09/06 05:33:36;;;;;;;1.85;0.88;;;;;;;;;;5023067;28;20053;-71
2022/09/06 05:36:08;;;;;;;1.02;0.80;;;;;;;;;;5021602;28;20052;-72
2022/09/06 05:38:36;;;;;;;0.88;0.70;;;;;;;;;;5023714;28;20313;-71
2022/09/06 05:41:08;;;;;;;2.63;0.77;;;;;;;;;;5023897;28;20626;-70
2022/09/06 05:43:36;;;;;;;1.40;0.88;;;;;;;;;;5025801;28;20538;-68
2022/09/06 05:46:08;;;;;;;0.60;0.50;;;;;;;;;;5025276;28;20122;-68
2022/09/06 05:48:36;;;;;;;0.98;0.77;;;;;;;;;;5021248;28;20111;-69
2022/09/06 05:51:11;;;;;;;1.70;1.08;;;;;;;;;;5024745;28;20046;-71
2022/09/06 05:53:40;;;;;;;1.85;0.88;;;;;;;;;;5025706;28;20080;-69
2022/09/06 05:56:11;;;;;;;1.52;0.90;;;;;;;;;;5028082;28;20045;-69
2022/09/06 05:58:39;;;;;;;0.73;0.55;;;;;;;;;;5028008;28;20080;-73
2022/09/06 06:01:08;;;;;;;3.70;0.70;;;;;;;;;;5028208;28;20592;-72
2022/09/06 06:03:37;;;;;;;1.52;0.82;;;;;;;;;;5026552;28;20049;-76
2022/09/06 06:06:09;;;;;;;0.60;0.60;;;;;;;;;;5025859;28;20061;-69
2022/09/06 06:08:37;;;;;;;4.22;0.85;;;;;;;;;;5025413;28;20092;-77
2022/09/06 06:11:09;;;;;;;2.15;1.42;;;;;;;;;;5026215;28;20053;-73
2022/09/06 06:13:39;;;;;;;3.50;1.10;;;;;;;;;;5029339;28;20068;-68
2022/09/06 06:16:11;;;;;;;1.65;1.15;;;;;;;;;;5023950;28;20144;-71
2022/09/06 06:18:39;;;;;;;0.73;0.60;;;;;;;;;;5026251;28;20041;-68
2022/09/06 06:21:09;;;;;;;0.88;0.52;;;;;;;;;;5024657;28;20057;-69
2022/09/06 06:23:37;;;;;;;0.70;0.70;;;;;;;;;;5025706;28;20140;-72
2022/09/06 06:26:08;;;;;;;1.52;0.93;;;;;;;;;;5039106;28;20122;-76
2022/09/06 06:28:39;;;;;;;0.77;0.73;;;;;;;;;;5038280;28;20702;-75
2022/09/06 06:31:08;;;;;;;7.40;0.80;;;;;;;;;;5044193;28;20632;-68
2022/09/06 06:33:36;;;;;;;0.90;0.75;;;;;;;;;;5042033;28;20488;-70
2022/09/06 06:36:08;;;;;;;1.50;1.27;;;;;;;;;;5026795;28;20152;-72
2022/09/06 06:38:38;;;;;;;1.83;1.15;;;;;;;;;;5026243;28;20115;-71
2022/09/06 06:41:10;;;;;;;1.50;1.08;;;;;;;;;;5022734;28;20165;-71
2022/09/06 06:43:40;;;;;;;2.80;0.90;;;;;;;;;;5024255;28;20136;-72
2022/09/06 06:46:09;;;;;;;1.40;0.85;;;;;;;;;;5024312;28;20085;-74
2022/09/06 06:48:39;;;;;;;1.75;1.10;;;;;;;;;;5024709;28;20052;-69
2022/09/06 06:51:08;;;;;;;1.40;0.80;;;;;;;;;;5026441;28;20144;-71
2022/09/06 06:53:36;;;;;;;2.42;1.02;;;;;;;;;;5023960;28;20140;-69
2022/09/06 06:56:18;;;;;;;2.03;1.17;;;;;;;;;;5019599;28;20590;-68
2022/09/06 06:58:49;;;;;;;2.17;1.00;;;;;;;;;;5022711;28;20046;-77
2022/09/06 07:01:18;;;;;;;2.75;1.40;;;;;;;;;;5022770;28;20509;-71
2022/09/06 07:03:47;;;;;;;1.02;0.90;;;;;;;;;;5024899;28;20041;-73
2022/09/06 07:06:16;;;;;;;0.82;0.82;;;;;;;;;;5021923;28;20084;-69
2022/09/06 07:08:45;;;;;;;1.30;0.95;;;;;;;;;;5025804;28;20045;-68
2022/09/06 07:11:14;;;;;;;1.48;0.95;;;;;;;;;;5025285;28;20073;-72
2022/09/06 07:13:43;;;;;;;6.97;1.13;;;;;;;;;;5026843;28;20053;-73
2022/09/06 07:16:13;;;;;;;2.22;1.20;;;;;;;;;;5027719;28;20049;-68
2022/09/06 07:18:44;;;;;;;1.13;0.98;;;;;;;;;;5028106;28;20048;-68
2022/09/06 07:21:13;;;;;;;0.60;0.45;;;;;;;;;;5027092;28;20076;-70
2022/09/06 07:24:01;;;;;;;2.03;0.98;;;;;;;;;;5028775;28;20409;-69
2022/09/06 07:26:31;;;;;;;0.60;0.55;;;;;;;;;;5030480;28;20111;-68
2022/09/06 07:29:01;;;;;;;0.90;0.68;;;;;;;;;;5030621;28;20053;-68
2022/09/06 07:31:31;;;;;;;0.50;0.40;;;;;;;;;;5029699;28;20085;-68
2022/09/06 07:34:20;;;;;;;2.53;0.68;;;;;;;;;;5029596;28;20132;-68
2022/09/06 07:36:49;;;;;;;1.13;0.63;;;;;;;;;;5028520;28;20049;-69
2022/09/06 07:39:17;;;;;;;0.45;0.40;;;;;;;;;;5030205;28;20049;-68
2022/09/06 07:41:46;;;;;;;0.88;0.50;;;;;;;;;;5029044;28;20451;-70
2022/09/06 07:44:14;;;;;;;0.73;0.50;;;;;;;;;;5025518;28;20045;-69
2022/09/06 07:46:44;;;;;;;11.80;0.65;;;;;;;;;;5029645;28;20103;-70
2022/09/06 07:49:13;;;;;;;1.08;0.50;;;;;;;;;;5024367;28;20053;-70
2022/09/06 07:51:41;;;;;;;1.83;0.70;;;;;;;;;;5028609;28;20485;-68
2022/09/06 07:54:10;;;;;;;0.50;0.50;;;;;;;;;;5027473;28;20099;-69
2022/09/06 07:56:58;;;;;;;0.50;0.40;;;;;;;;;;5023295;28;20099;-70
2022/09/06 07:59:26;;;;;;;0.73;0.50;;;;;;;;;;5024895;28;20095;-68
2022/09/06 08:01:56;;;;;;;1.58;0.77;;;;;;;;;;5025571;28;20056;-69
2022/09/06 08:04:25;;;;;;;0.75;0.75;;;;;;;;;;5029260;28;20080;-68
2022/09/06 08:06:56;;;;;;;7.32;0.77;;;;;;;;;;5027275;28;20501;-71
2022/09/06 08:09:46;;;;;;;0.82;0.50;;;;;;;;;;5025779;28;20046;-69
2022/09/06 08:12:15;;;;;;;0.95;0.70;;;;;;;;;;5030849;28;20501;-69
2022/09/06 08:14:44;;;;;;;2.67;0.85;;;;;;;;;;5028449;28;20045;-70
2022/09/06 08:17:14;;;;;;;0.30;0.20;;;;;;;;;;5045118;28;20085;-73
2022/09/06 08:19:43;;;;;;;0.63;0.52;;;;;;;;;;5045905;28;20063;-72
2022/09/06 08:22:12;;;;;;;1.13;0.68;;;;;;;;;;5053315;28;20107;-68
2022/09/06 08:24:40;;;;;;;0.38;0.28;;;;;;;;;;5046530;28;20064;-69
2022/09/06 08:27:09;;;;;;;5.88;0.82;;;;;;;;;;5028313;28;20061;-69
2022/09/06 08:29:38;;;;;;;1.27;0.80;;;;;;;;;;5031559;28;20477;-70
2022/09/06 08:32:07;;;;;;;1.15;0.55;;;;;;;;;;5028640;28;20517;-68
2022/09/06 08:34:37;;;;;;;0.63;0.63;;;;;;;;;;5037587;28;20130;-69
2022/09/06 08:37:06;;;;;;;1.95;0.93;;;;;;;;;;5034102;28;20052;-69
2022/09/06 08:39:34;;;;;;;0.30;0.30;;;;;;;;;;5032940;28;20119;-72
2022/09/06 08:42:05;;;;;;;0.35;0.35;;;;;;;;;;5028983;28;20490;-68
2022/09/06 08:44:35;;;;;;;0.95;0.50;;;;;;;;;;5029789;28;20106;-69
2022/09/06 08:47:23;;;;;;;0.50;0.50;;;;;;;;;;4996589;28;20454;-68
2022/09/06 08:49:56;;;;;;;3.20;0.55;;;;;;;;;;5003244;28;20513;-68
2022/09/06 08:52:28;;;;;;;0.28;0.28;;;;;;;;;;5005034;28;20476;-68
2022/09/06 08:55:00;;;;;;;1.48;0.95;;;;;;;;;;5003868;28;20064;-70
2022/09/06 08:57:37;;;;;;;1.08;0.60;;;;;;;;;;5005756;28;20050;-68
2022/09/06 09:00:09;;;;;;;3.47;0.50;;;;;;;;;;4999045;28;20050;-68
2022/09/06 09:02:43;;;;;;;1.38;0.50;;;;;;;;;;5002580;28;20153;-70
2022/09/06 09:05:19;;;;;;;0.50;0.50;;;;;;;;;;5005174;28;20485;-68
2022/09/06 09:07:51;;;;;;;0.77;0.40;;;;;;;;;;5002390;28;20046;-71
2022/09/06 09:10:23;;;;;;;0.57;0.28;;;;;;;;;;5006162;28;20053;-68
2022/09/06 09:12:52;;;;;;;0.30;0.30;;;;;;;;;;5007444;28;20077;-68
2022/09/06 09:15:21;;;;;;;0.20;0.20;;;;;;;;;;5004995;28;20085;-68
2022/09/06 09:17:50;;;;;;;0.20;0.20;;;;;;;;;;5009858;28;20475;-70
2022/09/06 09:20:21;;;;;;;0.65;0.25;;;;;;;;;;5048977;28;20542;-69
2022/09/06 09:22:49;;;;;;;3.67;0.32;;;;;;;;;;5048190;28;20136;-70
2022/09/06 09:25:20;;;;;;;5.47;0.40;;;;;;;;;;5036896;28;20161;-69
2022/09/06 09:27:56;;;;;;;0.35;0.28;;;;;;;;;;5027215;28;20124;-69
2022/09/06 09:30:25;;;;;;;0.63;0.40;;;;;;;;;;5030450;28;20084;-68
2022/09/06 09:33:22;;;;;;;0.40;0.30;;;;;;;;;;5022438;28;20077;-68
2022/09/06 09:35:52;;;;;;;0.35;0.13;;;;;;;;;;5026749;28;20452;-69
2022/09/06 09:38:22;;;;;;;0.10;0.10;;;;;;;;;;5024897;28;20339;-68
2022/09/06 09:40:52;;;;;;;0.30;0.20;;;;;;;;;;5027294;28;20045;-69
2022/09/06 09:43:21;;;;;;;0.20;0.20;;;;;;;;;;5026024;28;20137;-68
2022/09/06 09:46:13;;;;;;;0.17;0.17;;;;;;;;;;5022091;28;20497;-77
2022/09/06 09:48:44;;;;;;;0.47;0.32;;;;;;;;;;5024702;28;20133;-68
2022/09/06 09:51:19;;;;;;;0.63;0.30;;;;;;;;;;5024919;28;20053;-69
2022/09/06 09:53:55;;;;;;;1.27;0.38;;;;;;;;;;5027945;28;20064;-70
2022/09/06 09:56:34;;;;;;;0.28;0.28;;;;;;;;;;5028565;28;20045;-74
2022/09/06 09:59:03;;;;;;;0.90;0.35;;;;;;;;;;5025859;28;20045;-69
2022/09/06 10:01:33;;;;;;;0.32;0.30;;;;;;;;;;5020970;28;20061;-69
2022/09/06 10:04:02;;;;;;;0.20;0.20;;;;;;;;;;5029426;28;20547;-69
2022/09/06 10:06:52;;;;;;;0.22;0.22;;;;;;;;;;5028281;28;20124;-70
2022/09/06 10:09:38;;;;;;;4.22;0.70;;;;;;;;;;5027103;28;20442;-71
2022/09/06 10:12:07;;;;;;;0.52;0.30;;;;;;;;;;5020673;28;20440;-74
2022/09/06 10:14:41;;;;;;;1.48;0.45;;;;;;;;;;5023971;28;20049;-69
2022/09/06 10:17:09;;;;;;;0.38;0.35;;;;;;;;;;5046284;28;20072;-69
2022/09/06 10:19:39;;;;;;;1.80;0.47;;;;;;;;;;5045259;28;20158;-68
2022/09/06 10:22:20;;;;;;;0.20;0.20;;;;;;;;;;5051006;28;20061;-69
2022/09/06 10:24:53;;;;;;;1.65;0.40;;;;;;;;;;5047351;28;20076;-72
2022/09/06 10:27:24;;;;;;;3.72;0.38;;;;;;;;;;5049153;28;20120;-70
2022/09/06 10:29:57;;;;;;;0.20;0.20;;;;;;;;;;5047390;28;20045;-69
2022/09/06 10:32:32;;;;;;;1.55;0.40;;;;;;;;;;5038983;28;20098;-70
2022/09/06 10:35:06;;;;;;;0.32;0.30;;;;;;;;;;5047852;28;20049;-70
2022/09/06 10:37:43;;;;;;;0.20;0.20;;;;;;;;;;5048220;28;20163;-70
2022/09/06 10:40:12;;;;;;;1.23;0.40;;;;;;;;;;5049859;28;20132;-70
2022/09/06 10:42:43;;;;;;;0.43;0.32;;;;;;;;;;5051475;28;20090;-71
2022/09/06 10:45:36;;;;;;;0.47;0.40;;;;;;;;;;5042170;28;20120;-70
2022/09/06 10:48:08;;;;;;;0.95;0.57;;;;;;;;;;5017142;28;20452;-69
2022/09/06 10:50:44;;;;;;;0.55;0.40;;;;;;;;;;5030857;28;20069;-70
2022/09/06 10:53:19;;;;;;;0.80;0.50;;;;;;;;;;5029018;28;20057;-71
2022/09/06 10:55:49;;;;;;;0.38;0.22;;;;;;;;;;5029993;28;20120;-76
2022/09/06 10:58:20;;;;;;;3.92;0.50;;;;;;;;;;5027906;28;20484;-71
2022/09/06 11:00:49;;;;;;;0.30;0.30;;;;;;;;;;5030931;28;20046;-70
2022/09/06 11:03:22;;;;;;;0.40;0.40;;;;;;;;;;5024204;28;20150;-76
2022/09/06 11:06:12;;;;;;;0.55;0.40;;;;;;;;;;5028467;28;20464;-69
2022/09/06 11:08:46;;;;;;;0.60;0.40;;;;;;;;;;5028172;28;20119;-69
2022/09/06 11:11:20;;;;;;;0.45;0.40;;;;;;;;;;5031842;28;20041;-70
2022/09/06 11:13:48;;;;;;;0.55;0.35;;;;;;;;;;5027673;28;20053;-77
2022/09/06 11:16:20;;;;;;;0.77;0.50;;;;;;;;;;5023226;28;20050;-77
2022/09/06 11:18:50;;;;;;;1.05;0.30;;;;;;;;;;5026769;28;20137;-72
2022/09/06 11:21:36;;;;;;;0.60;0.40;;;;;;;;;;5028430;28;20135;-71
2022/09/06 11:24:11;;;;;;;0.43;0.28;;;;;;;;;;5028709;28;20084;-74
2022/09/06 11:26:59;;;;;;;0.40;0.40;;;;;;;;;;5028482;28;20420;-69
2022/09/06 11:29:28;;;;;;;3.50;0.40;;;;;;;;;;5031220;28;20136;-68
2022/09/06 11:31:57;;;;;;;1.90;0.50;;;;;;;;;;5030708;28;20547;-71
2022/09/06 11:34:52;;;;;;;2.40;0.20;;;;;;;;;;5030527;28;20128;-69
2022/09/06 11:37:25;;;;;;;0.68;0.30;;;;;;;;;;5030857;28;20053;-69
2022/09/06 11:40:05;;;;;;;0.30;0.30;;;;;;;;;;5029587;28;20046;-70
2022/09/06 11:43:12;;;;;;;1.15;0.40;;;;;;;;;;5030374;28;20053;-71
2022/09/06 11:45:43;;;;;;;0.35;0.35;;;;;;;;;;5030272;28;20147;-69
2022/09/06 11:48:33;;;;;;;1.33;0.35;;;;;;;;;;5030191;28;20099;-71
2022/09/06 11:51:05;;;;;;;0.68;0.40;;;;;;;;;;5029444;28;20041;-69
2022/09/06 11:53:35;;;;;;;3.20;0.43;;;;;;;;;;5030319;28;20053;-75
2022/09/06 11:56:12;;;;;;;0.40;0.35;;;;;;;;;;5028612;28;20132;-69
2022/09/06 11:58:49;;;;;;;0.85;0.30;;;;;;;;;;5028539;28;20088;-69
2022/09/06 12:01:34;;;;;;;0.98;0.57;;;;;;;;;;5031055;28;20137;-69
2022/09/06 12:04:05;;;;;;;5.15;0.93;;;;;;;;;;5028618;28;20680;-68
2022/09/06 12:06:36;;;;;;;0.60;0.50;;;;;;;;;;5029798;28;20139;-68
2022/09/06 12:09:19;;;;;;;0.55;0.32;;;;;;;;;;5026547;28;20096;-71
2022/09/06 12:11:50;;;;;;;0.40;0.40;;;;;;;;;;5022316;28;20560;-72
2022/09/06 12:14:28;;;;;;;0.40;0.40;;;;;;;;;;5027269;28;20053;-72
2022/09/06 12:17:21;;;;;;;3.00;0.50;;;;;;;;;;5030515;28;20076;-68
2022/09/06 12:19:50;;;;;;;0.82;0.40;;;;;;;;;;5014502;28;20057;-68
2022/09/06 12:22:39;;;;;;;1.13;0.40;;;;;;;;;;5028293;28;20463;-69
2022/09/06 12:25:16;;;;;;;1.10;0.35;;;;;;;;;;5026843;28;20485;-68
2022/09/06 12:27:54;;;;;;;2.40;0.60;;;;;;;;;;5028731;28;20504;-69
2022/09/06 12:30:36;;;;;;;4.72;0.65;;;;;;;;;;5030441;28;20041;-69
2022/09/06 12:33:06;;;;;;;2.30;0.65;;;;;;;;;;5027820;28;20128;-69
2022/09/06 12:35:36;;;;;;;1.27;0.60;;;;;;;;;;5023163;28;20151;-70
2022/09/06 12:38:25;;;;;;;4.15;0.77;;;;;;;;;;5029288;28;20466;-70
2022/09/06 12:40:57;;;;;;;4.07;0.70;;;;;;;;;;5028177;28;20482;-71
2022/09/06 12:43:29;;;;;;;0.65;0.47;;;;;;;;;;5027472;28;20484;-69
2022/09/06 12:46:00;;;;;;;0.40;0.40;;;;;;;;;;5040042;28;20064;-69
2022/09/06 12:48:29;;;;;;;0.60;0.52;;;;;;;;;;5046857;28;20049;-72
2022/09/06 12:51:01;;;;;;;2.53;0.73;;;;;;;;;;5049302;28;20083;-71
2022/09/06 12:53:35;;;;;;;1.25;0.85;;;;;;;;;;5049858;28;20064;-68
2022/09/06 12:56:10;;;;;;;4.25;0.70;;;;;;;;;;5048854;28;20053;-71
2022/09/06 12:58:41;;;;;;;4.30;0.40;;;;;;;;;;5047598;28;20045;-70
2022/09/06 13:01:12;;;;;;;3.53;0.77;;;;;;;;;;5048313;28;20102;-70
2022/09/06 13:03:41;;;;;;;3.20;0.82;;;;;;;;;;5047912;28;20489;-69
2022/09/06 13:06:19;;;;;;;3.67;0.80;;;;;;;;;;5048853;28;20139;-70
2022/09/06 13:08:55;;;;;;;1.80;0.70;;;;;;;;;;5047719;28;20045;-69
2022/09/06 13:11:26;;;;;;;2.28;0.63;;;;;;;;;;5048254;28;20167;-71
2022/09/06 13:13:56;;;;;;;0.68;0.35;;;;;;;;;;5048529;28;20073;-70
2022/09/06 13:16:25;;;;;;;1.10;0.52;;;;;;;;;;5048486;28;20106;-69
2022/09/06 13:18:54;;;;;;;2.78;0.50;;;;;;;;;;5046142;28;20065;-69
2022/09/06 13:21:27;;;;;;;0.77;0.43;;;;;;;;;;5049478;28;20107;-71
2022/09/06 13:23:57;;;;;;;3.63;0.77;;;;;;;;;;5048600;28;20140;-72
2022/09/06 13:26:33;;;;;;;2.13;1.08;;;;;;;;;;5045971;28;20055;-72
2022/09/06 13:29:22;;;;;;;0.52;0.38;;;;;;;;;;5048295;28;20053;-68
2022/09/06 13:31:51;;;;;;;0.98;0.57;;;;;;;;;;5047122;28;20064;-69
2022/09/06 13:34:20;;;;;;;1.13;0.60;;;;;;;;;;5046617;28;20110;-69
2022/09/06 13:36:50;;;;;;;3.13;0.70;;;;;;;;;;5029783;28;20531;-70
2022/09/06 13:39:31;;;;;;;0.68;0.40;;;;;;;;;;5029301;28;20702;-70
2022/09/06 13:42:04;;;;;;;1.08;0.63;;;;;;;;;;5026334;28;20049;-69
2022/09/06 13:44:35;;;;;;;0.40;0.40;;;;;;;;;;5029150;28;20092;-70
2022/09/06 13:47:03;;;;;;;2.38;0.52;;;;;;;;;;5048796;28;20049;-69
2022/09/06 13:49:32;;;;;;;4.32;0.70;;;;;;;;;;5049191;28;20071;-68
2022/09/06 13:52:01;;;;;;;0.77;0.50;;;;;;;;;;5046527;28;20041;-68
2022/09/06 13:54:30;;;;;;;1.75;0.55;;;;;;;;;;5048341;28;20508;-70
2022/09/06 13:57:00;;;;;;;5.38;0.98;;;;;;;;;;5025066;28;20038;-68
2022/09/06 13:59:29;;;;;;;1.65;0.63;;;;;;;;;;5027240;28;20057;-70
2022/09/06 14:02:01;;;;;;;2.33;0.73;;;;;;;;;;5025160;28;20077;-68
2022/09/06 14:04:30;;;;;;;0.63;0.50;;;;;;;;;;5029760;28;20053;-68
2022/09/06 14:06:59;;;;;;;1.85;0.70;;;;;;;;;;5027939;28;20055;-68
2022/09/06 14:09:28;;;;;;;7.95;1.00;;;;;;;;;;5028214;28;20081;-69
2022/09/06 14:11:56;;;;;;;0.40;0.40;;;;;;;;;;5025651;28;20141;-69
2022/09/06 14:14:25;;;;;;;1.17;0.80;;;;;;;;;;5032020;28;20089;-68
2022/09/06 14:16:53;;;;;;;1.00;0.35;;;;;;;;;;5031334;28;20050;-69
2022/09/06 14:19:23;;;;;;;4.22;0.45;;;;;;;;;;5033524;28;20084;-70
2022/09/06 14:21:52;;;;;;;1.30;0.57;;;;;;;;;;5028668;28;20038;-69
2022/09/06 14:24:20;;;;;;;1.73;0.70;;;;;;;;;;5029091;28;20488;-70
2022/09/06 14:26:49;;;;;;;2.22;0.75;;;;;;;;;;5031037;28;20053;-72
2022/09/06 14:29:17;;;;;;;3.25;1.35;;;;;;;;;;5031909;28;20046;-68
2022/09/06 14:31:47;;;;;;;0.52;0.40;;;;;;;;;;5032491;28;20052;-70
2022/09/06 14:34:15;;;;;;;1.83;0.50;;;;;;;;;;5032343;28;20048;-68
2022/09/06 14:36:45;;;;;;;0.55;0.38;;;;;;;;;;5028442;28;20513;-69
2022/09/06 14:39:14;;;;;;;0.45;0.40;;;;;;;;;;5033230;28;20053;-68
2022/09/06 14:41:42;;;;;;;0.88;0.68;;;;;;;;;;5032253;28;20532;-68
2022/09/06 14:44:11;;;;;;;4.72;0.73;;;;;;;;;;5032523;28;20132;-69
2022/09/06 14:46:40;;;;;;;0.65;0.50;;;;;;;;;;5049312;28;20083;-68
2022/09/06 14:49:09;;;;;;;4.88;0.60;;;;;;;;;;5048969;28;20045;-71
2022/09/06 14:51:38;;;;;;;0.40;0.40;;;;;;;;;;5046755;28;20069;-69
2022/09/06 14:54:09;;;;;;;6.80;1.02;;;;;;;;;;5048633;28;20049;-70
2022/09/06 14:56:39;;;;;;;4.00;0.63;;;;;;;;;;5049062;28;20496;-68
2022/09/06 14:59:08;;;;;;;1.15;0.80;;;;;;;;;;5049938;28;20118;-68
2022/09/06 15:01:37;;;;;;;1.77;0.60;;;;;;;;;;5049252;28;20037;-69
2022/09/06 15:04:07;;;;;;;1.55;0.50;;;;;;;;;;5047338;28;20084;-67
2022/09/06 15:06:38;;;;;;;1.33;0.55;;;;;;;;;;5033891;28;20128;-68
2022/09/06 15:09:09;;;;;;;2.38;0.50;;;;;;;;;;5031867;28;20519;-69
2022/09/06 15:11:41;;;;;;;1.48;0.60;;;;;;;;;;5030282;28;20276;-69